createdAt,value
2017-06-29T00:00:26.715Z,21.44
2017-06-29T00:00:54.855Z,21.4
2017-06-29T00:01:22.894Z,21.45
2017-06-29T00:01:50.931Z,21.4
2017-06-29T00:02:18.967Z,21.4
2017-06-29T00:02:47.097Z,21.44
2017-06-29T00:03:15.323Z,21.4
2017-06-29T00:03:43.221Z,21.43
2017-06-29T00:04:11.377Z,21.4
2017-06-29T00:04:39.318Z,21.33
2017-06-29T00:05:07.390Z,21.35
2017-06-29T00:05:35.547Z,21.32
2017-06-29T00:06:03.577Z,21.3
2017-06-29T00:06:31.624Z,21.32
2017-06-29T00:06:59.777Z,21.32
2017-06-29T00:07:27.904Z,21.38
2017-06-29T00:07:55.961Z,21.35
2017-06-29T00:08:24.084Z,21.32
2017-06-29T00:08:52.249Z,21.37
2017-06-29T00:09:20.375Z,21.33
2017-06-29T00:09:48.522Z,21.3
2017-06-29T00:10:16.644Z,21.3
2017-06-29T00:10:44.801Z,21.43
2017-06-29T00:11:12.752Z,21.33
2017-06-29T00:11:40.877Z,21.33
2017-06-29T00:12:08.952Z,21.35
2017-06-29T00:12:37.018Z,21.3
2017-06-29T00:13:05.135Z,21.29
2017-06-29T00:13:33.169Z,21.3
2017-06-29T00:14:01.304Z,21.33
2017-06-29T00:14:29.362Z,21.26
2017-06-29T00:14:57.398Z,21.29
2017-06-29T00:15:25.468Z,21.23
2017-06-29T00:15:53.549Z,21.25
2017-06-29T00:16:21.677Z,21.28
2017-06-29T00:16:49.713Z,21.15
2017-06-29T00:17:17.670Z,21.17
2017-06-29T00:17:45.844Z,21.15
2017-06-29T00:18:13.981Z,21.15
2017-06-29T00:18:42.120Z,21.1
2017-06-29T00:19:10.163Z,21.15
2017-06-29T00:19:38.201Z,21.11
2017-06-29T00:20:06.232Z,21.15
2017-06-29T00:20:34.412Z,21.14
2017-06-29T00:21:02.451Z,21.13
2017-06-29T00:21:30.495Z,21.17
2017-06-29T00:21:58.536Z,21.15
2017-06-29T00:22:26.602Z,21.1
2017-06-29T00:22:54.745Z,21.2
2017-06-29T00:23:22.748Z,21.22
2017-06-29T00:23:50.885Z,21.22
2017-06-29T00:24:19.054Z,21.13
2017-06-29T00:24:47.126Z,21.17
2017-06-29T00:25:15.270Z,21.15
2017-06-29T00:25:43.322Z,21.19
2017-06-29T00:26:11.521Z,21.11
2017-06-29T00:26:39.681Z,21.15
2017-06-29T00:27:07.908Z,21.11
2017-06-29T00:27:35.948Z,21.1
2017-06-29T00:28:04.113Z,21.05
2017-06-29T00:28:32.271Z,21.01
2017-06-29T00:29:00.426Z,21.01
2017-06-29T00:29:28.596Z,21.04
2017-06-29T00:29:56.735Z,20.86
2017-06-29T00:30:24.771Z,20.86
2017-06-29T00:30:54.758Z,20.92
2017-06-29T00:32:21.449Z,20.75
2017-06-29T00:32:49.626Z,20.74
2017-06-29T00:33:32.691Z,20.74
2017-06-29T00:34:00.892Z,20.77
2017-06-29T00:34:28.951Z,20.71
2017-06-29T00:34:57.072Z,20.7
2017-06-29T00:35:25.236Z,20.64
2017-06-29T00:35:53.383Z,20.56
2017-06-29T00:36:21.540Z,20.64
2017-06-29T00:36:49.673Z,20.6
2017-06-29T00:37:17.740Z,20.6
2017-06-29T00:37:45.818Z,20.68
2017-06-29T00:38:13.833Z,20.64
2017-06-29T00:38:41.818Z,20.58
2017-06-29T00:39:09.955Z,20.6
2017-06-29T00:39:38.088Z,20.58
2017-06-29T00:40:06.243Z,20.67
2017-06-29T00:40:34.375Z,20.58
2017-06-29T00:41:02.492Z,20.59
2017-06-29T00:41:30.523Z,20.63
2017-06-29T00:41:58.662Z,20.56
2017-06-29T00:42:26.812Z,20.63
2017-06-29T00:42:54.956Z,20.63
2017-06-29T00:43:22.982Z,20.66
2017-06-29T00:43:51.056Z,20.68
2017-06-29T00:44:19.108Z,20.71
2017-06-29T00:44:47.163Z,20.7
2017-06-29T00:45:15.295Z,20.7
2017-06-29T00:45:43.524Z,20.71
2017-06-29T00:46:11.674Z,20.74
2017-06-29T00:46:39.715Z,20.77
2017-06-29T00:47:07.828Z,20.86
2017-06-29T00:47:35.882Z,20.63
2017-06-29T00:48:03.907Z,20.85
2017-06-29T00:48:31.962Z,20.88
2017-06-29T00:49:00.118Z,20.78
2017-06-29T00:49:28.278Z,20.82
2017-06-29T00:49:56.348Z,20.88
2017-06-29T00:50:24.517Z,20.83
2017-06-29T00:50:52.646Z,20.86
2017-06-29T00:51:20.724Z,20.93
2017-06-29T00:51:48.856Z,20.8
2017-06-29T00:52:17.000Z,20.85
2017-06-29T00:52:45.134Z,20.88
2017-06-29T00:53:13.287Z,20.88
2017-06-29T00:53:41.442Z,20.89
2017-06-29T00:54:09.486Z,20.78
2017-06-29T00:54:37.609Z,20.85
2017-06-29T00:55:05.732Z,20.92
2017-06-29T00:55:33.887Z,20.8
2017-06-29T00:56:02.033Z,20.85
2017-06-29T00:56:29.968Z,20.85
2017-06-29T00:56:57.999Z,20.85
2017-06-29T00:57:26.134Z,20.78
2017-06-29T00:57:54.188Z,20.78
2017-06-29T00:58:22.339Z,20.86
2017-06-29T00:58:50.489Z,20.8
2017-06-29T00:59:18.667Z,20.89
2017-06-29T00:59:46.819Z,20.89
2017-06-29T01:00:14.882Z,20.92
2017-06-29T01:00:43.031Z,20.82
2017-06-29T01:01:11.170Z,20.86
2017-06-29T01:01:39.330Z,20.82
2017-06-29T01:02:07.474Z,20.85
2017-06-29T01:02:35.693Z,20.8
2017-06-29T01:03:03.857Z,20.86
2017-06-29T01:03:32.015Z,20.88
2017-06-29T01:04:00.223Z,20.8
2017-06-29T01:04:28.381Z,20.83
2017-06-29T01:04:56.516Z,20.83
2017-06-29T01:05:24.654Z,20.89
2017-06-29T01:05:52.714Z,20.89
2017-06-29T01:06:20.872Z,20.85
2017-06-29T01:06:49.049Z,20.78
2017-06-29T01:07:17.205Z,20.85
2017-06-29T01:07:45.326Z,20.85
2017-06-29T01:08:13.461Z,20.74
2017-06-29T01:08:41.619Z,20.89
2017-06-29T01:09:09.782Z,20.71
2017-06-29T01:09:37.941Z,20.89
2017-06-29T01:10:05.980Z,20.85
2017-06-29T01:10:34.109Z,20.78
2017-06-29T01:11:02.237Z,20.82
2017-06-29T01:11:30.280Z,20.85
2017-06-29T01:11:58.447Z,20.7
2017-06-29T01:12:26.426Z,20.75
2017-06-29T01:12:54.562Z,20.82
2017-06-29T01:13:22.696Z,20.77
2017-06-29T01:13:50.727Z,20.78
2017-06-29T01:14:18.852Z,20.78
2017-06-29T01:14:46.898Z,20.77
2017-06-29T01:15:15.029Z,20.7
2017-06-29T01:15:43.173Z,20.73
2017-06-29T01:16:11.328Z,20.75
2017-06-29T01:16:39.467Z,20.68
2017-06-29T01:17:07.525Z,20.67
2017-06-29T01:17:35.576Z,20.64
2017-06-29T01:18:03.620Z,20.63
2017-06-29T01:18:31.647Z,20.67
2017-06-29T01:18:59.824Z,20.6
2017-06-29T01:19:27.940Z,20.59
2017-06-29T01:19:56.072Z,20.58
2017-06-29T01:20:24.154Z,20.6
2017-06-29T01:20:52.212Z,20.55
2017-06-29T01:21:20.514Z,20.53
2017-06-29T01:21:48.674Z,20.37
2017-06-29T01:22:16.815Z,20.42
2017-06-29T01:22:44.882Z,20.5
2017-06-29T01:23:12.919Z,20.27
2017-06-29T01:23:41.048Z,20.36
2017-06-29T01:24:09.189Z,20.27
2017-06-29T01:24:37.335Z,20.32
2017-06-29T01:25:05.395Z,20.27
2017-06-29T01:25:33.544Z,20.3
2017-06-29T01:26:01.713Z,20.32
2017-06-29T01:26:29.752Z,20.3
2017-06-29T01:26:57.877Z,20.29
2017-06-29T01:27:25.924Z,20.32
2017-06-29T01:27:54.098Z,20.34
2017-06-29T01:28:22.257Z,20.3
2017-06-29T01:28:50.398Z,20.36
2017-06-29T01:29:18.549Z,20.33
2017-06-29T01:29:46.757Z,20.21
2017-06-29T01:30:14.800Z,20.21
2017-06-29T01:30:42.859Z,20.26
2017-06-29T01:31:11.000Z,20.19
2017-06-29T01:31:39.030Z,20.18
2017-06-29T01:32:07.084Z,20.17
2017-06-29T01:32:35.230Z,20.12
2017-06-29T01:33:03.378Z,20.15
2017-06-29T01:33:31.525Z,20.14
2017-06-29T01:33:59.595Z,20.08
2017-06-29T01:34:27.742Z,20.07
2017-06-29T01:34:55.889Z,20.04
2017-06-29T01:35:23.955Z,20.04
2017-06-29T01:35:51.980Z,20.03
2017-06-29T01:36:20.216Z,20.04
2017-06-29T01:36:48.331Z,20.04
2017-06-29T01:37:16.468Z,19.97
2017-06-29T01:37:44.606Z,19.94
2017-06-29T01:38:12.880Z,19.96
2017-06-29T01:38:40.908Z,19.9
2017-06-29T01:39:09.061Z,19.89
2017-06-29T01:39:36.995Z,19.89
2017-06-29T01:40:05.139Z,19.93
2017-06-29T01:40:33.341Z,19.93
2017-06-29T01:41:01.497Z,19.87
2017-06-29T01:41:29.631Z,19.81
2017-06-29T01:41:57.689Z,19.9
2017-06-29T01:42:25.813Z,19.84
2017-06-29T01:42:53.975Z,19.87
2017-06-29T01:43:22.035Z,19.79
2017-06-29T01:43:50.169Z,19.82
2017-06-29T01:44:18.202Z,19.63
2017-06-29T01:44:46.317Z,19.67
2017-06-29T01:45:14.493Z,19.77
2017-06-29T01:45:42.641Z,19.75
2017-06-29T01:46:10.689Z,19.75
2017-06-29T01:46:38.834Z,19.62
2017-06-29T01:47:06.966Z,19.66
2017-06-29T01:47:35.016Z,19.71
2017-06-29T01:48:03.177Z,19.64
2017-06-29T01:48:31.306Z,19.64
2017-06-29T01:48:59.418Z,19.67
2017-06-29T01:49:27.562Z,19.7
2017-06-29T01:49:55.731Z,19.66
2017-06-29T01:50:23.834Z,19.64
2017-06-29T01:50:51.889Z,19.64
2017-06-29T01:51:20.026Z,19.64
2017-06-29T01:51:48.187Z,19.7
2017-06-29T01:52:16.324Z,19.74
2017-06-29T01:52:44.460Z,19.71
2017-06-29T01:53:12.527Z,19.64
2017-06-29T01:53:40.576Z,19.77
2017-06-29T01:54:08.710Z,19.75
2017-06-29T01:54:36.845Z,19.72
2017-06-29T01:55:04.986Z,19.78
2017-06-29T01:55:33.027Z,19.74
2017-06-29T01:56:01.173Z,19.75
2017-06-29T01:56:29.096Z,19.75
2017-06-29T01:56:57.323Z,19.74
2017-06-29T01:57:25.371Z,19.77
2017-06-29T01:57:53.501Z,19.74
2017-06-29T01:58:21.567Z,19.64
2017-06-29T01:58:49.686Z,19.74
2017-06-29T01:59:17.711Z,19.64
2017-06-29T01:59:45.834Z,19.62
2017-06-29T02:00:13.878Z,19.66
2017-06-29T02:00:42.020Z,19.64
2017-06-29T02:01:10.172Z,19.59
2017-06-29T02:01:38.308Z,19.6
2017-06-29T02:02:06.452Z,19.63
2017-06-29T02:02:34.575Z,19.57
2017-06-29T02:03:02.608Z,19.56
2017-06-29T02:03:30.771Z,19.53
2017-06-29T02:03:58.926Z,19.64
2017-06-29T02:04:27.077Z,19.57
2017-06-29T02:04:55.202Z,19.59
2017-06-29T02:05:23.339Z,19.56
2017-06-29T02:05:51.509Z,19.63
2017-06-29T02:06:19.540Z,19.52
2017-06-29T02:06:47.674Z,19.52
2017-06-29T02:07:15.724Z,19.63
2017-06-29T02:07:43.786Z,19.56
2017-06-29T02:08:11.910Z,19.62
2017-06-29T02:08:40.041Z,19.59
2017-06-29T02:09:08.088Z,19.52
2017-06-29T02:09:36.212Z,19.56
2017-06-29T02:10:04.354Z,19.6
2017-06-29T02:10:32.498Z,19.55
2017-06-29T02:11:00.622Z,19.56
2017-06-29T02:11:28.663Z,19.47
2017-06-29T02:11:56.795Z,19.53
2017-06-29T02:12:24.832Z,19.53
2017-06-29T02:12:52.967Z,19.45
2017-06-29T02:13:21.114Z,19.44
2017-06-29T02:13:49.279Z,19.47
2017-06-29T02:14:17.337Z,19.47
2017-06-29T02:14:45.369Z,19.42
2017-06-29T02:15:13.485Z,19.49
2017-06-29T02:15:41.513Z,19.41
2017-06-29T02:16:09.636Z,19.48
2017-06-29T02:16:37.594Z,19.47
2017-06-29T02:17:05.661Z,19.41
2017-06-29T02:17:33.786Z,19.45
2017-06-29T02:18:01.925Z,19.37
2017-06-29T02:18:30.052Z,19.41
2017-06-29T02:18:58.205Z,19.37
2017-06-29T02:19:26.348Z,19.34
2017-06-29T02:19:54.449Z,19.41
2017-06-29T02:20:22.581Z,19.34
2017-06-29T02:20:50.613Z,19.42
2017-06-29T02:21:18.739Z,19.39
2017-06-29T02:21:46.880Z,19.37
2017-06-29T02:22:14.934Z,19.26
2017-06-29T02:22:43.058Z,19.38
2017-06-29T02:23:11.214Z,19.38
2017-06-29T02:23:39.314Z,19.41
2017-06-29T02:24:07.446Z,19.34
2017-06-29T02:24:35.514Z,19.34
2017-06-29T02:25:03.665Z,19.38
2017-06-29T02:25:31.799Z,19.27
2017-06-29T02:25:59.947Z,19.34
2017-06-29T02:26:28.090Z,19.34
2017-06-29T02:26:56.220Z,19.22
2017-06-29T02:27:24.359Z,19.35
2017-06-29T02:27:52.489Z,19.34
2017-06-29T02:28:20.664Z,19.39
2017-06-29T02:28:48.779Z,19.34
2017-06-29T02:29:16.901Z,19.42
2017-06-29T02:29:45.020Z,19.38
2017-06-29T02:30:13.058Z,19.34
2017-06-29T02:30:41.094Z,19.37
2017-06-29T02:31:09.169Z,19.35
2017-06-29T02:31:37.298Z,19.37
2017-06-29T02:32:05.449Z,19.34
2017-06-29T02:32:33.595Z,19.34
2017-06-29T02:33:01.740Z,19.37
2017-06-29T02:33:29.868Z,19.35
2017-06-29T02:33:57.945Z,19.39
2017-06-29T02:34:26.079Z,19.35
2017-06-29T02:34:54.007Z,19.34
2017-06-29T02:35:22.049Z,19.38
2017-06-29T02:35:50.178Z,19.38
2017-06-29T02:36:18.318Z,19.38
2017-06-29T02:36:46.372Z,19.38
2017-06-29T02:37:14.500Z,19.27
2017-06-29T02:37:42.679Z,19.29
2017-06-29T02:38:10.774Z,19.27
2017-06-29T02:38:38.908Z,19.29
2017-06-29T02:39:07.061Z,19.24
2017-06-29T02:39:35.167Z,19.35
2017-06-29T02:40:03.140Z,19.35
2017-06-29T02:40:31.469Z,19.22
2017-06-29T02:40:59.592Z,19.26
2017-06-29T02:41:27.655Z,19.3
2017-06-29T02:41:55.768Z,19.3
2017-06-29T02:42:23.909Z,19.3
2017-06-29T02:42:51.942Z,19.27
2017-06-29T02:43:19.973Z,19.29
2017-06-29T02:43:48.094Z,19.24
2017-06-29T02:44:16.236Z,19.34
2017-06-29T02:44:44.352Z,19.27
2017-06-29T02:45:12.409Z,19.29
2017-06-29T02:45:40.541Z,19.35
2017-06-29T02:46:08.669Z,19.32
2017-06-29T02:46:36.803Z,19.38
2017-06-29T02:47:04.934Z,19.37
2017-06-29T02:47:33.084Z,19.42
2017-06-29T02:48:01.200Z,19.35
2017-06-29T02:48:29.232Z,19.29
2017-06-29T02:48:57.381Z,19.39
2017-06-29T02:49:25.345Z,19.38
2017-06-29T02:49:53.474Z,19.37
2017-06-29T02:50:21.601Z,19.29
2017-06-29T02:50:49.727Z,19.24
2017-06-29T02:51:17.892Z,19.27
2017-06-29T02:51:46.009Z,19.29
2017-06-29T02:52:14.138Z,19.24
2017-06-29T02:52:42.251Z,19.2
2017-06-29T02:53:10.403Z,19.26
2017-06-29T02:53:38.535Z,19.23
2017-06-29T02:54:06.663Z,19.19
2017-06-29T02:54:34.689Z,19.19
2017-06-29T02:55:02.854Z,19.2
2017-06-29T02:55:30.879Z,19.2
2017-06-29T02:55:59.018Z,19.2
2017-06-29T02:56:27.148Z,19.09
2017-06-29T02:56:55.292Z,19.12
2017-06-29T02:57:23.467Z,19.07
2017-06-29T02:57:51.609Z,19.09
2017-06-29T02:58:19.780Z,19.09
2017-06-29T02:58:47.890Z,19.12
2017-06-29T02:59:16.007Z,19.05
2017-06-29T02:59:44.152Z,19.11
2017-06-29T03:00:12.313Z,19.08
2017-06-29T03:00:40.414Z,19.15
2017-06-29T03:01:08.542Z,19.05
2017-06-29T03:01:36.573Z,19.12
2017-06-29T03:02:04.718Z,19.11
2017-06-29T03:02:32.771Z,19.19
2017-06-29T03:03:00.921Z,19.09
2017-06-29T03:03:29.070Z,19.09
2017-06-29T03:03:57.210Z,19.04
2017-06-29T03:04:25.350Z,19.17
2017-06-29T03:04:53.502Z,19.11
2017-06-29T03:05:21.636Z,19.05
2017-06-29T03:05:49.700Z,19
2017-06-29T03:06:17.845Z,19.09
2017-06-29T03:06:45.996Z,19.07
2017-06-29T03:07:14.119Z,19.04
2017-06-29T03:07:42.258Z,19.05
2017-06-29T03:08:10.397Z,19.01
2017-06-29T03:08:38.435Z,19.05
2017-06-29T03:09:06.552Z,18.98
2017-06-29T03:09:34.504Z,19.04
2017-06-29T03:10:02.566Z,18.96
2017-06-29T03:10:30.695Z,19.01
2017-06-29T03:10:58.823Z,18.94
2017-06-29T03:11:26.971Z,19.07
2017-06-29T03:11:55.124Z,18.91
2017-06-29T03:12:23.163Z,19
2017-06-29T03:12:51.278Z,18.98
2017-06-29T03:13:19.439Z,18.98
2017-06-29T03:13:47.586Z,18.97
2017-06-29T03:14:15.727Z,18.96
2017-06-29T03:14:43.777Z,18.97
2017-06-29T03:15:11.892Z,18.86
2017-06-29T03:15:39.917Z,18.89
2017-06-29T03:16:08.089Z,18.88
2017-06-29T03:16:36.224Z,18.91
2017-06-29T03:17:04.344Z,18.89
2017-06-29T03:17:32.402Z,18.82
2017-06-29T03:18:00.431Z,18.86
2017-06-29T03:18:28.455Z,18.94
2017-06-29T03:18:56.597Z,18.89
2017-06-29T03:19:24.708Z,18.82
2017-06-29T03:19:52.846Z,18.82
2017-06-29T03:20:20.984Z,18.83
2017-06-29T03:20:49.127Z,18.89
2017-06-29T03:21:17.265Z,18.86
2017-06-29T03:21:45.424Z,18.73
2017-06-29T03:22:13.588Z,18.73
2017-06-29T03:22:41.727Z,18.76
2017-06-29T03:23:09.848Z,18.74
2017-06-29T03:23:37.878Z,18.68
2017-06-29T03:24:05.898Z,18.64
2017-06-29T03:24:34.041Z,18.67
2017-06-29T03:25:01.995Z,18.63
2017-06-29T03:25:30.129Z,18.57
2017-06-29T03:25:58.249Z,18.52
2017-06-29T03:26:26.401Z,18.55
2017-06-29T03:26:54.555Z,18.49
2017-06-29T03:27:22.689Z,18.52
2017-06-29T03:27:50.706Z,18.52
2017-06-29T03:28:18.842Z,18.43
2017-06-29T03:28:46.889Z,18.43
2017-06-29T03:29:15.013Z,18.49
2017-06-29T03:29:43.177Z,18.41
2017-06-29T03:30:11.312Z,18.45
2017-06-29T03:30:39.466Z,18.42
2017-06-29T03:31:07.438Z,18.42
2017-06-29T03:31:35.494Z,18.43
2017-06-29T03:32:03.641Z,18.42
2017-06-29T03:32:31.650Z,18.39
2017-06-29T03:32:59.791Z,18.42
2017-06-29T03:33:27.843Z,18.41
2017-06-29T03:33:55.942Z,18.33
2017-06-29T03:34:24.069Z,18.37
2017-06-29T03:34:52.122Z,18.39
2017-06-29T03:35:20.142Z,18.34
2017-06-29T03:35:48.250Z,18.28
2017-06-29T03:36:16.396Z,18.34
2017-06-29T03:36:44.531Z,18.33
2017-06-29T03:37:12.663Z,18.3
2017-06-29T03:37:40.716Z,18.34
2017-06-29T03:38:08.855Z,18.26
2017-06-29T03:38:36.988Z,18.26
2017-06-29T03:39:05.042Z,18.21
2017-06-29T03:39:33.177Z,18.21
2017-06-29T03:40:01.185Z,18.21
2017-06-29T03:40:29.332Z,18.23
2017-06-29T03:40:57.494Z,18.24
2017-06-29T03:41:25.607Z,18.21
2017-06-29T03:41:53.634Z,18.27
2017-06-29T03:42:21.781Z,18.19
2017-06-29T03:42:49.935Z,18.21
2017-06-29T03:43:17.995Z,18.15
2017-06-29T03:43:46.114Z,18.24
2017-06-29T03:44:14.282Z,18.21
2017-06-29T03:44:42.291Z,18.3
2017-06-29T03:45:10.429Z,18.19
2017-06-29T03:45:38.548Z,18.19
2017-06-29T03:46:06.691Z,18.18
2017-06-29T03:46:34.828Z,18.26
2017-06-29T03:47:02.988Z,18.28
2017-06-29T03:47:31.120Z,18.21
2017-06-29T03:47:59.270Z,18.16
2017-06-29T03:48:27.399Z,18.19
2017-06-29T03:48:55.542Z,18.23
2017-06-29T03:49:23.665Z,18.26
2017-06-29T03:49:51.737Z,18.3
2017-06-29T03:50:19.734Z,18.27
2017-06-29T03:50:47.890Z,18.39
2017-06-29T03:51:16.034Z,18.37
2017-06-29T03:51:44.155Z,18.36
2017-06-29T03:52:12.315Z,18.33
2017-06-29T03:52:40.421Z,18.28
2017-06-29T03:53:08.563Z,18.31
2017-06-29T03:53:36.720Z,18.39
2017-06-29T03:54:04.851Z,18.41
2017-06-29T03:54:32.943Z,18.37
2017-06-29T03:55:01.083Z,18.41
2017-06-29T03:55:29.134Z,18.41
2017-06-29T03:55:57.251Z,18.34
2017-06-29T03:56:25.314Z,18.39
2017-06-29T03:56:53.486Z,18.39
2017-06-29T03:57:21.631Z,18.37
2017-06-29T03:57:49.765Z,18.48
2017-06-29T03:58:17.829Z,18.48
2017-06-29T03:58:45.970Z,18.34
2017-06-29T03:59:14.099Z,18.34
2017-06-29T03:59:42.137Z,18.37
2017-06-29T04:00:10.269Z,18.34
2017-06-29T04:00:52.903Z,18.34
2017-06-29T04:01:21.036Z,18.31
2017-06-29T04:01:49.106Z,18.36
2017-06-29T04:02:17.242Z,18.3
2017-06-29T04:02:45.355Z,18.24
2017-06-29T04:03:13.547Z,18.24
2017-06-29T04:03:41.598Z,18.24
2017-06-29T04:04:09.703Z,18.26
2017-06-29T04:04:37.836Z,18.15
2017-06-29T04:05:05.992Z,18.13
2017-06-29T04:05:34.029Z,18.13
2017-06-29T04:06:02.167Z,18.09
2017-06-29T04:06:30.219Z,18.11
2017-06-29T04:06:58.314Z,18.06
2017-06-29T04:07:26.372Z,18.02
2017-06-29T04:07:54.529Z,17.98
2017-06-29T04:08:22.682Z,18
2017-06-29T04:08:50.811Z,17.98
2017-06-29T04:09:18.937Z,17.97
2017-06-29T04:09:47.073Z,18.02
2017-06-29T04:10:15.214Z,18
2017-06-29T04:10:43.220Z,17.95
2017-06-29T04:11:11.350Z,17.91
2017-06-29T04:11:39.470Z,17.93
2017-06-29T04:12:07.598Z,17.97
2017-06-29T04:12:35.668Z,17.98
2017-06-29T04:13:03.797Z,17.98
2017-06-29T04:13:31.843Z,17.9
2017-06-29T04:13:59.978Z,17.88
2017-06-29T04:14:28.080Z,17.88
2017-06-29T04:14:56.196Z,17.87
2017-06-29T04:15:24.221Z,17.93
2017-06-29T04:15:52.288Z,17.9
2017-06-29T04:16:20.338Z,17.84
2017-06-29T04:16:48.465Z,17.93
2017-06-29T04:17:16.619Z,17.93
2017-06-29T04:17:44.754Z,17.98
2017-06-29T04:18:12.906Z,17.93
2017-06-29T04:18:41.065Z,17.94
2017-06-29T04:19:09.206Z,17.93
2017-06-29T04:19:37.364Z,17.91
2017-06-29T04:20:05.483Z,17.98
2017-06-29T04:20:33.620Z,17.93
2017-06-29T04:21:01.730Z,17.95
2017-06-29T04:21:29.772Z,17.94
2017-06-29T04:21:57.894Z,17.97
2017-06-29T04:22:26.051Z,17.97
2017-06-29T04:22:54.180Z,17.94
2017-06-29T04:23:22.316Z,17.93
2017-06-29T04:23:50.380Z,17.98
2017-06-29T04:24:18.522Z,17.87
2017-06-29T04:24:46.578Z,17.91
2017-06-29T04:25:14.627Z,18
2017-06-29T04:25:42.773Z,18.02
2017-06-29T04:26:10.914Z,17.91
2017-06-29T04:26:39.038Z,17.88
2017-06-29T04:27:07.199Z,17.91
2017-06-29T04:27:35.351Z,17.97
2017-06-29T04:28:03.470Z,17.93
2017-06-29T04:28:31.517Z,17.98
2017-06-29T04:28:59.463Z,17.98
2017-06-29T04:29:27.508Z,17.94
2017-06-29T04:29:55.663Z,17.95
2017-06-29T04:30:23.601Z,17.93
2017-06-29T04:30:51.737Z,17.94
2017-06-29T04:31:19.870Z,17.93
2017-06-29T04:31:48.000Z,17.9
2017-06-29T04:32:16.043Z,18
2017-06-29T04:32:44.171Z,17.88
2017-06-29T04:33:12.326Z,17.88
2017-06-29T04:33:40.430Z,17.9
2017-06-29T04:34:08.554Z,17.9
2017-06-29T04:34:36.693Z,17.94
2017-06-29T04:35:04.826Z,17.91
2017-06-29T04:35:32.866Z,17.94
2017-06-29T04:36:01.007Z,17.94
2017-06-29T04:36:29.166Z,17.93
2017-06-29T04:36:57.305Z,17.93
2017-06-29T04:37:25.320Z,17.88
2017-06-29T04:37:53.366Z,17.87
2017-06-29T04:38:21.513Z,17.86
2017-06-29T04:38:49.642Z,17.79
2017-06-29T04:39:17.799Z,17.78
2017-06-29T04:39:45.933Z,17.78
2017-06-29T04:40:13.996Z,17.75
2017-06-29T04:40:42.020Z,17.66
2017-06-29T04:41:10.154Z,17.66
2017-06-29T04:41:38.303Z,17.76
2017-06-29T04:42:06.440Z,17.72
2017-06-29T04:42:34.611Z,17.69
2017-06-29T04:43:02.638Z,17.6
2017-06-29T04:43:30.703Z,17.72
2017-06-29T04:43:58.850Z,17.6
2017-06-29T04:44:26.907Z,17.56
2017-06-29T04:44:55.026Z,17.63
2017-06-29T04:45:23.033Z,17.63
2017-06-29T04:45:51.182Z,17.56
2017-06-29T04:46:19.203Z,17.54
2017-06-29T04:46:47.222Z,17.57
2017-06-29T04:47:15.345Z,17.63
2017-06-29T04:47:43.380Z,17.57
2017-06-29T04:48:11.519Z,17.66
2017-06-29T04:48:39.671Z,17.57
2017-06-29T04:49:07.723Z,17.63
2017-06-29T04:49:35.867Z,17.66
2017-06-29T04:50:04.006Z,17.66
2017-06-29T04:50:32.140Z,17.65
2017-06-29T04:51:00.243Z,17.56
2017-06-29T04:51:28.394Z,17.65
2017-06-29T04:51:56.529Z,17.53
2017-06-29T04:52:24.651Z,17.41
2017-06-29T04:52:52.791Z,17.54
2017-06-29T04:53:20.950Z,17.46
2017-06-29T04:53:49.063Z,17.47
2017-06-29T04:54:17.201Z,17.42
2017-06-29T04:54:45.329Z,17.39
2017-06-29T04:55:13.466Z,17.46
2017-06-29T04:55:41.617Z,17.35
2017-06-29T04:56:09.668Z,17.35
2017-06-29T04:56:37.827Z,17.34
2017-06-29T04:57:05.947Z,17.37
2017-06-29T04:57:34.078Z,17.37
2017-06-29T04:58:02.237Z,17.31
2017-06-29T04:58:30.368Z,17.32
2017-06-29T04:58:58.501Z,17.37
2017-06-29T04:59:26.634Z,17.34
2017-06-29T04:59:54.778Z,17.41
2017-06-29T05:00:22.902Z,17.35
2017-06-29T05:00:51.056Z,17.34
2017-06-29T05:01:19.203Z,17.35
2017-06-29T05:01:47.353Z,17.38
2017-06-29T05:02:15.518Z,17.32
2017-06-29T05:02:43.674Z,17.34
2017-06-29T05:03:11.823Z,17.35
2017-06-29T05:03:39.946Z,17.31
2017-06-29T05:04:07.978Z,17.39
2017-06-29T05:04:36.103Z,17.37
2017-06-29T05:05:04.168Z,17.3
2017-06-29T05:05:32.321Z,17.37
2017-06-29T05:06:00.458Z,17.34
2017-06-29T05:06:28.605Z,17.24
2017-06-29T05:06:56.750Z,17.24
2017-06-29T05:07:24.880Z,17.27
2017-06-29T05:07:52.909Z,17.3
2017-06-29T05:08:20.968Z,17.19
2017-06-29T05:08:49.026Z,17.22
2017-06-29T05:09:17.151Z,17.14
2017-06-29T05:09:45.301Z,17.14
2017-06-29T05:10:13.432Z,17.14
2017-06-29T05:10:41.572Z,17.13
2017-06-29T05:11:09.724Z,17.09
2017-06-29T05:11:37.885Z,17.17
2017-06-29T05:12:05.997Z,17.16
2017-06-29T05:12:34.141Z,17.16
2017-06-29T05:13:02.301Z,17.17
2017-06-29T05:13:30.438Z,17.12
2017-06-29T05:13:58.586Z,17.19
2017-06-29T05:14:26.655Z,17.19
2017-06-29T05:14:54.612Z,17.14
2017-06-29T05:15:22.740Z,17.17
2017-06-29T05:15:50.872Z,17.07
2017-06-29T05:16:19.015Z,17.01
2017-06-29T05:16:47.163Z,17.02
2017-06-29T05:17:15.288Z,17.01
2017-06-29T05:17:43.364Z,16.99
2017-06-29T05:18:11.516Z,17.09
2017-06-29T05:18:39.665Z,17.07
2017-06-29T05:19:07.784Z,16.99
2017-06-29T05:19:35.906Z,17.01
2017-06-29T05:20:03.942Z,17.07
2017-06-29T05:20:32.100Z,17.02
2017-06-29T05:21:00.168Z,17.07
2017-06-29T05:21:28.321Z,17.01
2017-06-29T05:21:56.459Z,17.19
2017-06-29T05:22:24.606Z,17.16
2017-06-29T05:22:52.749Z,17.12
2017-06-29T05:23:20.899Z,17.16
2017-06-29T05:23:48.953Z,17.13
2017-06-29T05:24:17.078Z,17.14
2017-06-29T05:24:45.664Z,17.09
2017-06-29T05:25:13.703Z,17.14
2017-06-29T05:25:41.769Z,17.2
2017-06-29T05:26:09.858Z,17.2
2017-06-29T05:26:37.826Z,17.14
2017-06-29T05:27:05.857Z,17.17
2017-06-29T05:27:33.997Z,17.22
2017-06-29T05:28:02.149Z,17.2
2017-06-29T05:28:30.301Z,17.23
2017-06-29T05:28:58.432Z,17.27
2017-06-29T05:29:26.475Z,17.2
2017-06-29T05:29:54.503Z,17.17
2017-06-29T05:30:22.630Z,17.16
2017-06-29T05:30:50.797Z,17.13
2017-06-29T05:31:18.926Z,17.23
2017-06-29T05:31:47.052Z,17.13
2017-06-29T05:32:15.072Z,17.02
2017-06-29T05:32:43.045Z,16.99
2017-06-29T05:33:11.176Z,17.05
2017-06-29T05:33:39.244Z,16.95
2017-06-29T05:34:07.379Z,16.98
2017-06-29T05:34:35.439Z,16.98
2017-06-29T05:35:03.571Z,16.94
2017-06-29T05:35:31.696Z,16.89
2017-06-29T05:35:59.832Z,16.86
2017-06-29T05:36:27.971Z,16.87
2017-06-29T05:36:56.108Z,16.86
2017-06-29T05:37:24.189Z,16.89
2017-06-29T05:37:52.335Z,16.86
2017-06-29T05:38:20.344Z,16.86
2017-06-29T05:38:48.498Z,16.8
2017-06-29T05:39:16.656Z,16.79
2017-06-29T05:39:44.832Z,16.87
2017-06-29T05:40:12.865Z,16.84
2017-06-29T05:40:40.920Z,16.84
2017-06-29T05:41:09.049Z,16.83
2017-06-29T05:41:37.201Z,16.8
2017-06-29T05:42:05.337Z,16.82
2017-06-29T05:42:33.512Z,16.83
2017-06-29T05:43:01.626Z,16.79
2017-06-29T05:43:29.701Z,16.76
2017-06-29T05:43:57.834Z,16.79
2017-06-29T05:44:25.973Z,16.79
2017-06-29T05:44:54.014Z,16.83
2017-06-29T05:45:22.071Z,16.82
2017-06-29T05:45:50.197Z,16.77
2017-06-29T05:46:18.324Z,16.74
2017-06-29T05:46:46.396Z,16.77
2017-06-29T05:47:14.517Z,16.86
2017-06-29T05:47:42.568Z,16.77
2017-06-29T05:48:10.684Z,16.77
2017-06-29T05:48:38.715Z,16.73
2017-06-29T05:49:06.852Z,16.74
2017-06-29T05:49:34.995Z,16.73
2017-06-29T05:50:02.947Z,16.74
2017-06-29T05:50:31.095Z,16.74
2017-06-29T05:50:59.233Z,16.79
2017-06-29T05:51:27.274Z,16.72
2017-06-29T05:51:55.325Z,16.77
2017-06-29T05:52:23.470Z,16.76
2017-06-29T05:52:51.586Z,16.72
2017-06-29T05:53:19.715Z,16.73
2017-06-29T05:53:47.854Z,16.74
2017-06-29T05:54:15.986Z,16.74
2017-06-29T05:54:44.025Z,16.77
2017-06-29T05:55:12.170Z,16.76
2017-06-29T05:55:40.324Z,16.72
2017-06-29T05:56:08.483Z,16.76
2017-06-29T05:56:36.516Z,16.69
2017-06-29T05:57:04.666Z,16.72
2017-06-29T05:57:32.705Z,16.72
2017-06-29T05:58:00.871Z,16.69
2017-06-29T05:58:29.015Z,16.69
2017-06-29T05:58:57.152Z,16.66
2017-06-29T05:59:25.301Z,16.57
2017-06-29T05:59:53.339Z,16.64
2017-06-29T06:00:21.373Z,16.65
2017-06-29T06:00:49.509Z,16.65
2017-06-29T06:01:17.626Z,16.61
2017-06-29T06:01:45.737Z,16.55
2017-06-29T06:02:13.793Z,16.55
2017-06-29T06:02:41.929Z,16.55
2017-06-29T06:03:10.082Z,16.61
2017-06-29T06:03:38.217Z,16.55
2017-06-29T06:04:06.340Z,16.49
2017-06-29T06:04:34.447Z,16.61
2017-06-29T06:05:02.571Z,16.57